BarenTS Sea — 9VAP5 — position and weather

sailwx.info

Track history (hours):
 
Tides and Currents Weather Stations Pressure Air Temp Water Temp Dewpoint Dewpoint Depression Visibility Wind Speed Wind Dir Waves Ship Positions

BarenTS Sea

Last reported at 2018-Apr-20 07:18 UTC. Time now 2018-Apr-25 12:39 UTC.
Position N 01°15' E 104°04'.

Length 248 m; draft 12.2 m.

Type: Tanker. MMSI: 563909000.

Date/timePositionNaut miles runAvg speedWind from/ knotsBaromVisibWave heightAir tempDewpointWater temp
2018-Apr-20 07:18N 01°15' E 104°04'310.8
2018-Apr-20 07:00N 01°14' E 104°01'510.4
2018-Apr-20 06:30N 01°13' E 103°56'4 8.7
2018-Apr-20 06:00N 01°11' E 103°51'4 7.8
2018-Apr-20 05:29N 01°10' E 103°48'5 9.7
2018-Apr-20 04:59N 01°06' E 103°45'510.9
2018-Apr-20 04:30N 01°03' E 103°40'611.3
2018-Apr-20 03:59N 01°05' E 103°35'612.3
2018-Apr-20 03:30N 01°08' E 103°30'712.1
2018-Apr-20 02:58N 01°11' E 103°24'  
2018-Apr-16 20:41N 01°13' E 103°29'311.9
2018-Apr-16 20:28N 01°12' E 103°32'511.1
2018-Apr-16 19:59N 01°12' E 103°37'510.0
2018-Apr-16 19:30N 01°10' E 103°41'4 8.3
2018-Apr-16 19:00N 01°09' E 103°45'5 9.3
2018-Apr-16 18:30N 01°11' E 103°49'4 7.2
2018-Apr-16 18:00N 01°12' E 103°53'4 7.1
2018-Apr-16 17:30N 01°14' E 103°56'  
Track history (hours):
 
Tides and Currents Weather Stations Pressure Air Temp Water Temp Dewpoint Dewpoint Depression Visibility Wind Speed Wind Dir Waves Ship Positions

BarenTS Sea

Last reported at 2018-Apr-20 07:18 UTC. Time now 2018-Apr-25 12:39 UTC.
Position N 01°15' E 104°04'.

Length 248 m; draft 12.2 m.

Type: Tanker. MMSI: 563909000.

Date/timePositionNaut miles runAvg speedWind from/ knotsBaromVisibWave heightAir tempDewpointWater temp
2018-Apr-20 07:18N 01°15' E 104°04'310.8
2018-Apr-20 07:00N 01°14' E 104°01'510.4
2018-Apr-20 06:30N 01°13' E 103°56'4 8.7
2018-Apr-20 06:00N 01°11' E 103°51'4 7.8
2018-Apr-20 05:29N 01°10' E 103°48'5 9.7
2018-Apr-20 04:59N 01°06' E 103°45'510.9
2018-Apr-20 04:30N 01°03' E 103°40'611.3
2018-Apr-20 03:59N 01°05' E 103°35'612.3
2018-Apr-20 03:30N 01°08' E 103°30'712.1
2018-Apr-20 02:58N 01°11' E 103°24'  
2018-Apr-16 20:41N 01°13' E 103°29'311.9
2018-Apr-16 20:28N 01°12' E 103°32'511.1
2018-Apr-16 19:59N 01°12' E 103°37'510.0
2018-Apr-16 19:30N 01°10' E 103°41'4 8.3
2018-Apr-16 19:00N 01°09' E 103°45'5 9.3
2018-Apr-16 18:30N 01°11' E 103°49'4 7.2
2018-Apr-16 18:00N 01°12' E 103°53'4 7.1
2018-Apr-16 17:30N 01°14' E 103°56'  

Dump ship's entire track history